Time;durP1;ratioP1;P1;durP2;ratioP2;P2;SDS_P1;SDS_P2;PMS_P1;PMS_P2;Temp;Humidity;BMP_temperature;BMP_pressure;BME280_temperature;BME280_humidity;BME280_pressure;Samples;Min_cycle;Max_cycle;Signal;HPM_P1;HPM_P2
2022/04/20 00:01:23;;;;;;;;;15.50;14.25;;;;;14.93;38.08;100712.16;5019217;28;45785;-60
2022/04/20 00:03:49;;;;;;;;;11.00;9.50;;;;;14.91;38.11;100715.78;5018768;28;45174;-60
2022/04/20 00:06:14;;;;;;;;;15.50;13.75;;;;;14.86;37.81;100705.31;5019984;28;45297;-60
2022/04/20 00:08:40;;;;;;;;;17.50;14.50;;;;;14.85;38.28;100700.94;5018311;28;45396;-60
2022/04/20 00:11:07;;;;;;;;;17.00;15.00;;;;;14.86;38.33;100712.41;5019971;28;45405;-60
2022/04/20 00:13:33;;;;;;;;;20.00;14.00;;;;;14.85;37.86;100715.97;5005041;28;45396;-60
2022/04/20 00:16:00;;;;;;;;;16.75;14.75;;;;;14.81;37.96;100715.19;5019904;28;45577;-60
2022/04/20 00:18:25;;;;;;;;;23.00;15.25;;;;;14.78;38.29;100710.88;5018404;28;48006;-60
2022/04/20 00:20:50;;;;;;;;;15.25;14.00;;;;;14.76;38.22;100711.84;5013114;28;45501;-60
2022/04/20 00:23:16;;;;;;;;;20.50;15.75;;;;;14.73;38.60;100707.50;5013594;28;45358;-60
2022/04/20 00:25:41;;;;;;;;;19.25;17.75;;;;;14.70;38.12;100707.59;5019914;28;45396;-60
2022/04/20 00:28:06;;;;;;;;;17.50;15.50;;;;;14.70;38.44;100712.03;5018185;28;46176;-60
2022/04/20 00:30:32;;;;;;;;;19.00;16.50;;;;;14.67;38.06;100704.22;5018936;28;45199;-60
2022/04/20 00:32:57;;;;;;;;;19.75;15.50;;;;;14.65;38.23;100695.44;5018467;28;45487;-60
2022/04/20 00:35:23;;;;;;;;;19.75;18.00;;;;;14.60;38.58;100699.09;5019689;28;45515;-60
2022/04/20 00:37:49;;;;;;;;;16.50;15.75;;;;;14.60;38.51;100696.44;5017324;28;45866;-60
2022/04/20 00:40:15;;;;;;;;;23.00;20.00;;;;;14.56;38.52;100693.94;5008378;28;45383;-60
2022/04/20 00:42:41;;;;;;;;;20.25;19.50;;;;;14.55;38.83;100697.47;5018073;28;45302;-60
2022/04/20 00:45:08;;;;;;;;;16.00;14.25;;;;;14.53;38.22;100697.53;5019702;28;45286;-60
2022/04/20 00:47:37;;;;;;;;;23.00;21.75;;;;;14.50;38.82;100699.41;5007607;28;45305;-60
2022/04/20 00:50:04;;;;;;;;;24.00;20.00;;;;;14.47;38.49;100695.06;5013992;28;45220;-60
2022/04/20 00:52:29;;;;;;;;;24.50;21.50;;;;;14.44;38.94;100697.84;5016630;28;45168;-60
2022/04/20 00:54:54;;;;;;;;;22.75;21.00;;;;;14.42;38.98;100692.56;5019146;28;45143;-60
2022/04/20 00:57:19;;;;;;;;;23.75;21.25;;;;;14.38;38.71;100696.22;5017763;28;45404;-60
2022/04/20 00:59:45;;;;;;;;;19.25;18.00;;;;;14.36;38.77;100695.41;5019493;28;45240;-60
2022/04/20 01:02:11;;;;;;;;;23.25;20.50;;;;;14.35;39.12;100685.75;5018029;28;45219;-60
2022/04/20 01:04:38;;;;;;;;;25.00;23.75;;;;;14.33;38.85;100684.09;5019329;28;45553;-61
2022/04/20 01:07:14;;;;;;;;;22.50;17.75;;;;;14.32;38.92;100690.28;5016603;28;46160;-60
2022/04/20 01:09:41;;;;;;;;;26.00;25.00;;;;;14.29;39.29;100685.94;5018756;28;45419;-60
2022/04/20 01:12:08;;;;;;;;;27.75;23.75;;;;;14.28;39.00;100690.34;5014075;28;45353;-60
2022/04/20 01:14:35;;;;;;;;;28.00;22.75;;;;;14.25;39.33;100682.53;5009392;28;45230;-60
2022/04/20 01:17:00;;;;;;;;;33.50;27.50;;;;;14.24;39.04;100682.59;5016357;28;47433;-60
2022/04/20 01:19:38;;;;;;;;;25.00;23.00;;;;;14.22;39.30;100685.25;5017866;28;45178;-61
2022/04/20 01:22:04;;;;;;;;;21.50;20.50;;;;;14.21;39.60;100680.00;5005353;28;45258;-60
2022/04/20 01:24:30;;;;;;;;;26.00;24.50;;;;;14.19;39.14;100682.72;5018481;28;45333;-60
2022/04/20 01:26:56;;;;;;;;;31.75;26.25;;;;;14.18;39.01;100683.63;5016022;28;47472;-60
2022/04/20 01:29:22;;;;;;;;;28.25;22.25;;;;;14.16;39.68;100674.84;5018974;28;45256;-60
2022/04/20 01:31:48;;;;;;;;;30.50;28.00;;;;;14.14;39.75;100672.28;5017488;28;45259;-60
2022/04/20 01:34:13;;;;;;;;;25.75;20.50;;;;;14.13;39.30;100677.59;5017277;28;45248;-61
2022/04/20 01:36:39;;;;;;;;;27.50;26.25;;;;;14.12;39.70;100679.41;5032645;28;46988;-60
2022/04/20 01:39:04;;;;;;;;;27.50;23.75;;;;;14.08;39.31;100668.97;5007330;28;45361;-60
2022/04/20 01:41:30;;;;;;;;;25.75;23.50;;;;;14.07;39.51;100675.16;5015310;28;45310;-60
2022/04/20 01:43:55;;;;;;;;;32.00;26.75;;;;;14.07;39.55;100675.16;5018613;28;45321;-60
2022/04/20 01:46:21;;;;;;;;;27.75;25.75;;;;;14.06;39.61;100676.94;5014016;28;45623;-60
2022/04/20 01:48:46;;;;;;;;;26.25;24.75;;;;;14.03;39.56;100673.50;5001233;28;45215;-60
2022/04/20 01:53:56;;;;;;;;;26.25;25.00;;;;;14.02;39.65;100677.06;5016863;28;45210;-59
2022/04/20 01:56:22;;;;;;;;;31.75;30.25;;;;;14.01;39.62;100685.91;5018554;28;45596;-59
2022/04/20 01:58:47;;;;;;;;;26.75;24.50;;;;;13.98;39.49;100684.22;5015829;28;45364;-59
2022/04/20 02:03:56;;;;;;;;;30.50;29.00;;;;;13.94;39.80;100685.22;5020714;28;45155;-59
2022/04/20 02:06:21;;;;;;;;;29.00;25.25;;;;;13.90;40.03;100681.78;5021763;28;45466;-59
2022/04/20 02:08:47;;;;;;;;;25.25;23.00;;;;;13.88;39.91;100673.03;5020501;28;45599;-59
2022/04/20 02:11:12;;;;;;;;;32.00;27.00;;;;;13.84;39.80;100671.41;5020965;28;45551;-59
2022/04/20 02:13:38;;;;;;;;;27.25;23.75;;;;;13.85;39.61;100681.06;4998466;28;45301;-59
2022/04/20 02:16:03;;;;;;;;;27.00;24.00;;;;;13.81;39.86;100679.41;4992788;28;47130;-59
2022/04/20 02:18:28;;;;;;;;;29.50;25.00;;;;;13.81;40.06;100666.19;4999018;28;45452;-59
2022/04/20 02:20:54;;;;;;;;;33.50;30.50;;;;;13.79;40.04;100666.25;5003137;28;45521;-60
2022/04/20 02:23:19;;;;;;;;;27.00;20.75;;;;;13.75;40.22;100663.75;5002958;28;45297;-59
2022/04/20 02:25:44;;;;;;;;;32.25;27.50;;;;;13.77;40.37;100656.63;5002967;28;45352;-59
2022/04/20 02:28:10;;;;;;;;;29.25;23.75;;;;;13.76;40.48;100660.19;5003082;28;45508;-59
2022/04/20 02:30:35;;;;;;;;;26.00;23.00;;;;;13.76;40.53;100652.25;5003336;28;45377;-59
2022/04/20 02:33:00;;;;;;;;;30.00;27.25;;;;;13.74;40.36;100657.59;5002930;28;45328;-59
2022/04/20 02:35:27;;;;;;;;;30.00;28.00;;;;;13.73;40.42;100649.72;4992602;28;47262;-59
2022/04/20 02:37:53;;;;;;;;;23.50;22.00;;;;;13.71;40.58;100647.13;4998480;28;45284;-59
2022/04/20 02:40:19;;;;;;;;;31.00;26.75;;;;;13.70;40.41;100648.03;5002949;28;45152;-59
2022/04/20 02:42:45;;;;;;;;;29.75;26.00;;;;;13.68;40.48;100641.91;5002894;28;45250;-59
2022/04/20 02:45:10;;;;;;;;;29.75;27.75;;;;;13.65;40.58;100632.31;4992329;28;45477;-61
2022/04/20 02:47:36;;;;;;;;;34.00;29.25;;;;;13.67;40.72;100634.06;5000836;28;45424;-59
2022/04/20 02:50:01;;;;;;;;;30.00;28.25;;;;;13.65;40.42;100634.97;5003025;28;45227;-59
2022/04/20 02:52:26;;;;;;;;;32.50;27.50;;;;;13.65;40.79;100636.75;5002446;28;45234;-59
2022/04/20 02:54:52;;;;;;;;;32.75;29.75;;;;;13.63;40.40;100633.28;5002659;28;45375;-59
2022/04/20 02:57:18;;;;;;;;;31.00;28.50;;;;;13.60;40.71;100628.09;5001321;28;45362;-59
2022/04/20 02:59:44;;;;;;;;;27.75;26.00;;;;;13.61;40.53;100641.25;5002747;28;45329;-59
2022/04/20 03:02:09;;;;;;;;;32.00;29.50;;;;;13.60;40.32;100633.38;5002499;28;45295;-59
2022/04/20 03:04:35;;;;;;;;;34.50;29.50;;;;;13.58;40.43;100622.81;5001209;28;47141;-59
2022/04/20 03:07:00;;;;;;;;;36.75;33.00;;;;;13.56;40.94;100614.09;5002307;28;45329;-59
2022/04/20 03:09:25;;;;;;;;;31.75;30.00;;;;;13.56;40.69;100619.38;4991844;28;45302;-59
2022/04/20 03:11:51;;;;;;;;;36.25;29.50;;;;;13.52;40.85;100615.13;4997279;28;45392;-59
2022/04/20 03:14:18;;;;;;;;;34.75;31.50;;;;;13.54;41.13;100625.63;5002103;28;45351;-59
2022/04/20 03:16:43;;;;;;;;;34.50;30.00;;;;;13.50;40.97;100614.28;5002206;28;45257;-59
2022/04/20 03:19:09;;;;;;;;;34.50;27.50;;;;;13.51;41.16;100617.78;5002356;28;45448;-59
2022/04/20 03:21:34;;;;;;;;;42.25;32.50;;;;;13.49;40.83;100617.81;5002738;28;45189;-59
2022/04/20 03:23:59;;;;;;;;;42.75;36.75;;;;;13.48;41.10;100618.72;5001681;28;45975;-59
2022/04/20 03:26:25;;;;;;;;;39.75;34.50;;;;;13.33;41.07;100605.03;5000878;28;45436;-59
2022/04/20 03:28:50;;;;;;;;;38.00;32.25;;;;;13.45;40.88;100624.09;5002469;28;45474;-59
2022/04/20 03:31:17;;;;;;;;;50.75;39.25;;;;;13.41;40.92;100631.25;5000849;28;45290;-59
2022/04/20 03:33:42;;;;;;;;;38.75;35.00;;;;;13.41;40.69;100628.59;5000712;28;46207;-59
2022/04/20 03:36:08;;;;;;;;;36.50;32.00;;;;;13.42;41.31;100642.66;5001929;28;45305;-59
2022/04/20 03:38:34;;;;;;;;;32.25;30.00;;;;;13.41;41.17;100640.91;5002078;28;45317;-59
2022/04/20 03:41:00;;;;;;;;;31.50;28.75;;;;;13.40;41.20;100647.13;5001940;28;45447;-59
2022/04/20 03:43:25;;;;;;;;;36.75;31.00;;;;;13.37;41.45;100644.53;5001982;28;45306;-60
2022/04/20 03:45:51;;;;;;;;;32.75;30.00;;;;;13.36;41.40;100646.31;5001730;28;48385;-59
2022/04/20 03:48:17;;;;;;;;;35.50;30.00;;;;;13.31;41.13;100643.78;5002152;28;45578;-60
2022/04/20 03:50:42;;;;;;;;;39.25;32.50;;;;;13.33;41.15;100651.66;5001847;28;45389;-59
2022/04/20 03:53:07;;;;;;;;;39.00;33.00;;;;;13.26;41.39;100650.97;5000250;28;46483;-60
2022/04/20 03:55:33;;;;;;;;;36.00;29.50;;;;;13.32;41.30;100663.16;5001704;28;45340;-59
2022/04/20 03:57:58;;;;;;;;;55.75;43.25;;;;;13.29;41.31;100663.22;5001995;28;45509;-60
2022/04/20 04:00:25;;;;;;;;;38.75;32.25;;;;;13.30;41.64;100668.44;5000365;28;45811;-60
2022/04/20 04:02:51;;;;;;;;;40.75;35.25;;;;;13.22;41.75;100659.00;5001832;28;45338;-60
2022/04/20 04:05:16;;;;;;;;;34.50;29.25;;;;;13.29;41.62;100668.47;5001428;28;45248;-59
2022/04/20 04:07:41;;;;;;;;;34.50;32.25;;;;;13.29;41.57;100665.84;5001713;28;45277;-59
2022/04/20 04:10:07;;;;;;;;;44.00;33.50;;;;;13.26;41.31;100655.38;5001359;28;45433;-59
2022/04/20 04:12:33;;;;;;;;;39.00;32.25;;;;;13.23;41.29;100650.19;5001304;28;45443;-60
2022/04/20 04:14:59;;;;;;;;;37.50;34.00;;;;;13.25;41.63;100645.72;5001514;28;45258;-59
2022/04/20 04:17:24;;;;;;;;;38.75;33.00;;;;;13.18;41.50;100634.47;5001657;28;45248;-59
2022/04/20 04:19:49;;;;;;;;;41.25;34.25;;;;;13.23;41.40;100645.78;5001429;28;45261;-59
2022/04/20 04:22:15;;;;;;;;;39.00;34.25;;;;;13.21;41.57;100637.03;5001695;28;45392;-60
2022/04/20 04:24:40;;;;;;;;;45.50;36.50;;;;;13.20;41.83;100637.06;5000898;28;45321;-59
2022/04/20 04:27:09;;;;;;;;;45.50;35.75;;;;;13.18;41.80;100637.09;5000136;28;45397;-59
2022/04/20 04:29:35;;;;;;;;;45.75;37.50;;;;;13.17;41.48;100641.53;5001240;28;45224;-59
2022/04/20 04:32:01;;;;;;;;;44.75;35.50;;;;;13.17;41.93;100643.31;5001082;28;47109;-59
2022/04/20 04:34:26;;;;;;;;;44.50;36.00;;;;;13.12;41.57;100640.78;4987894;28;45299;-59
2022/04/20 04:36:54;;;;;;;;;41.25;35.00;;;;;13.14;41.54;100649.53;5001512;28;45248;-59
2022/04/20 04:39:21;;;;;;;;;44.75;35.50;;;;;13.11;41.68;100651.38;4988877;28;45510;-59
2022/04/20 04:41:50;;;;;;;;;37.25;33.25;;;;;13.11;41.77;100646.94;5001065;28;46056;-59
2022/04/20 04:44:19;;;;;;;;;46.50;37.25;;;;;13.12;41.63;100658.38;5000781;28;45252;-59
2022/04/20 05:31:46;;;;;;;;;37.75;31.50;;;;;12.88;42.15;100663.38;5639662;22;46581;-59
2022/04/20 05:34:11;;;;;;;;;45.25;35.75;;;;;12.91;42.08;100675.63;4999753;28;45506;-59
2022/04/20 05:42:12;;;;;;;;;42.50;35.00;;;;;12.92;42.14;100677.38;4983965;28;45494;-59
2022/04/20 05:44:37;;;;;;;;;41.00;35.00;;;;;12.90;42.46;100668.63;4987721;28;45535;-58
2022/04/20 05:47:03;;;;;;;;;43.25;34.50;;;;;12.93;42.13;100674.69;4993127;28;46234;-58
2022/04/20 05:49:28;;;;;;;;;40.50;34.50;;;;;12.96;42.44;100674.59;4998365;28;45575;-59
2022/04/20 05:51:53;;;;;;;;;42.75;35.00;;;;;12.99;42.37;100671.00;4999283;28;45436;-59
2022/04/20 05:54:19;;;;;;;;;41.00;32.00;;;;;13.01;42.48;100672.69;4997312;28;45405;-60
2022/04/20 05:56:44;;;;;;;;;45.25;35.25;;;;;13.00;42.35;100662.19;4990926;28;46294;-57
2022/04/20 05:59:09;;;;;;;;;47.25;39.00;;;;;13.05;42.30;100668.22;4998110;28;45383;-59
2022/04/20 06:01:35;;;;;;;;;43.50;34.50;;;;;13.06;42.47;100658.53;4999277;28;45296;-59
2022/04/20 06:04:00;;;;;;;;;41.25;34.00;;;;;13.09;42.48;100669.84;4998175;28;45369;-59
2022/04/20 06:06:25;;;;;;;;;42.75;34.75;;;;;13.09;42.42;100661.09;4999055;28;46168;-60
2022/04/20 06:08:51;;;;;;;;;42.50;35.25;;;;;13.11;42.35;100664.56;4997620;28;45314;-62
2022/04/20 06:11:16;;;;;;;;;41.50;32.75;;;;;13.13;42.55;100668.00;4990576;28;45278;-61
2022/04/20 06:13:42;;;;;;;;;31.25;28.75;;;;;13.09;42.34;100658.47;4980225;28;45389;-63
2022/04/20 06:16:07;;;;;;;;;40.25;34.50;;;;;13.20;42.51;100674.88;4981745;28;46087;-63
2022/04/20 06:18:33;;;;;;;;;46.50;37.50;;;;;13.22;42.46;100669.53;4979702;28;45222;-61
2022/04/20 06:20:58;;;;;;;;;46.25;35.75;;;;;13.24;42.60;100673.88;4981851;28;45476;-58
2022/04/20 06:23:24;;;;;;;;;42.00;36.25;;;;;13.27;42.53;100671.16;4990554;28;45547;-58
2022/04/20 06:25:53;;;;;;;;;41.50;34.75;;;;;13.29;42.66;100666.69;4980148;28;46056;-59
2022/04/20 06:28:18;;;;;;;;;50.25;36.50;;;;;13.32;42.63;100671.06;4970113;28;45342;-57
2022/04/20 06:30:44;;;;;;;;;42.25;34.00;;;;;13.35;42.63;100670.09;4965491;28;45243;-56
2022/04/20 06:33:09;;;;;;;;;45.25;38.00;;;;;13.36;42.65;100663.91;4969240;28;45235;-56
2022/04/20 06:35:34;;;;;;;;;46.50;36.25;;;;;13.41;42.53;100670.84;4974788;28;45290;-58
2022/04/20 06:37:59;;;;;;;;;44.00;35.25;;;;;13.44;42.35;100672.53;4970126;28;45356;-58
2022/04/20 06:40:25;;;;;;;;;45.50;37.50;;;;;13.46;42.51;100668.06;4971929;28;45389;-59
2022/04/20 06:42:50;;;;;;;;;43.00;35.00;;;;;13.49;42.47;100675.91;4967527;28;45768;-56
2022/04/20 06:45:16;;;;;;;;;41.75;34.50;;;;;13.53;42.37;100685.47;4964591;28;46384;-57
2022/04/20 06:47:41;;;;;;;;;44.75;37.75;;;;;13.55;42.63;100673.09;4969197;28;45243;-58
2022/04/20 06:50:07;;;;;;;;;38.75;35.00;;;;;13.60;42.60;100675.63;4967408;28;45440;-58
2022/04/20 07:00:44;;;;;;;;;41.75;32.75;;;;;13.72;42.65;100675.28;4964647;28;45378;-57
2022/04/20 07:03:09;;;;;;;;;42.25;36.25;;;;;13.78;42.49;100676.84;4970956;28;45457;-63
2022/04/20 07:05:35;;;;;;;;;38.50;32.75;;;;;13.80;42.21;100678.53;4961048;28;45450;-53
2022/04/20 07:08:00;;;;;;;;;41.25;35.25;;;;;13.84;42.18;100681.13;4960783;28;45538;-49
2022/04/20 07:10:27;;;;;;;;;41.25;34.75;;;;;13.87;42.44;100668.66;4961235;28;45475;-48
2022/04/20 07:12:52;;;;;;;;;36.00;32.50;;;;;13.90;42.44;100679.16;4971810;28;45600;-49
2022/04/20 07:15:18;;;;;;;;;40.50;34.75;;;;;13.93;42.26;100676.41;4977435;28;47169;-46
2022/04/20 07:17:44;;;;;;;;;36.75;34.00;;;;;13.97;42.26;100683.34;4973450;28;45232;-50
2022/04/20 07:20:13;;;;;;;;;47.00;36.75;;;;;14.03;42.47;100684.09;4981169;28;45327;-49
2022/04/20 07:22:39;;;;;;;;;38.50;33.50;;;;;14.07;42.16;100678.63;4972130;28;45457;-48
2022/04/20 07:25:05;;;;;;;;;40.50;35.50;;;;;14.11;42.34;100679.41;4979297;28;46923;-50
2022/04/20 07:27:30;;;;;;;;;44.25;35.00;;;;;14.15;42.29;100675.81;4982361;28;45365;-47
2022/04/20 07:29:55;;;;;;;;;41.75;35.00;;;;;14.20;42.16;100676.53;4982416;28;45243;-46
2022/04/20 07:32:21;;;;;;;;;39.00;36.00;;;;;14.24;42.38;100678.16;4981958;28;45567;-47
2022/04/20 07:34:46;;;;;;;;;39.75;34.25;;;;;14.30;42.27;100682.38;4982000;28;47172;-51
2022/04/20 07:37:11;;;;;;;;;48.25;37.50;;;;;14.34;42.09;100684.03;4982074;28;45364;-49
2022/04/20 07:39:37;;;;;;;;;43.25;35.75;;;;;14.39;42.12;100687.38;4982070;28;45357;-49
2022/04/20 07:42:03;;;;;;;;;39.00;36.00;;;;;14.41;42.27;100680.25;4982134;28;45520;-53
2022/04/20 07:44:28;;;;;;;;;31.50;29.50;;;;;14.45;42.08;100681.91;4978862;28;45279;-49
2022/04/20 07:46:53;;;;;;;;;35.25;33.00;;;;;14.52;42.32;100682.56;4961533;28;45371;-49
2022/04/20 07:52:03;;;;;;;;;29.75;27.75;;;;;14.60;42.02;100674.41;4962592;28;45221;-47
2022/04/20 07:54:28;;;;;;;;;34.50;32.50;;;;;14.65;42.29;100687.50;4962066;28;47764;-48
2022/04/20 07:56:54;;;;;;;;;35.00;32.50;;;;;14.69;42.11;100684.72;4961265;28;45259;-59
2022/04/20 07:59:19;;;;;;;;;31.75;30.75;;;;;14.74;41.87;100689.84;4960899;28;45228;-51
2022/04/20 08:01:45;;;;;;;;;33.75;31.75;;;;;14.76;42.15;100688.88;4965147;28;45160;-53
2022/04/20 08:04:10;;;;;;;;;31.75;27.50;;;;;14.80;42.24;100687.00;4974698;28;45295;-49
2022/04/20 08:06:35;;;;;;;;;26.50;23.50;;;;;14.83;41.70;100675.47;4974247;28;45294;-52
2022/04/20 08:09:01;;;;;;;;;34.50;30.50;;;;;14.90;42.22;100677.00;4974656;28;45256;-52
2022/04/20 08:11:26;;;;;;;;;30.75;27.75;;;;;14.94;42.07;100681.25;4962514;28;45494;-52
2022/04/20 08:14:10;;;;;;;;;25.75;22.00;;;;;14.97;42.06;100682.94;4968796;28;45961;-48
2022/04/20 08:16:36;;;;;;;;;21.00;19.75;;;;;15.01;41.39;100684.59;4962319;28;45236;-52
2022/04/20 08:19:02;;;;;;;;;30.25;24.50;;;;;15.04;41.49;100679.19;4962383;28;45456;-51
2022/04/20 08:21:27;;;;;;;;;21.75;21.75;;;;;15.12;41.49;100685.09;4973917;28;45420;-48
2022/04/20 08:23:53;;;;;;;;;23.50;22.25;;;;;15.14;41.84;100685.88;4962049;28;45426;-49
2022/04/20 08:26:18;;;;;;;;;23.00;21.00;;;;;15.21;41.63;100686.56;4961414;28;45542;-48
2022/04/20 08:28:44;;;;;;;;;23.50;20.75;;;;;15.28;41.62;100694.22;4961077;28;45463;-53
2022/04/20 08:31:09;;;;;;;;;20.75;19.00;;;;;15.31;41.41;100687.97;4961793;28;45382;-50
2022/04/20 08:33:35;;;;;;;;;21.75;18.00;;;;;15.37;41.50;100698.34;4962062;28;45229;-60
2022/04/20 08:36:00;;;;;;;;;22.00;20.00;;;;;15.43;41.32;100700.78;4961907;28;45323;-52
2022/04/20 08:38:26;;;;;;;;;21.25;19.75;;;;;15.45;41.03;100700.72;4967555;28;45414;-51
2022/04/20 08:40:54;;;;;;;;;19.50;18.50;;;;;15.53;40.97;100698.66;4979983;28;45401;-52
2022/04/20 08:43:20;;;;;;;;;21.75;20.00;;;;;15.61;41.42;100706.34;4973565;28;45455;-67
2022/04/20 08:45:49;;;;;;;;;26.75;23.50;;;;;15.66;41.40;100696.44;4961463;28;45247;-51
2022/04/20 08:48:14;;;;;;;;;22.00;18.50;;;;;15.64;41.44;100685.03;4961940;28;45492;-60
2022/04/20 08:50:40;;;;;;;;;18.50;18.25;;;;;15.76;41.33;100696.97;4961692;28;45290;-57
2022/04/20 08:53:06;;;;;;;;;22.25;20.00;;;;;15.86;41.17;100700.16;4967885;28;45482;-51
2022/04/20 08:55:32;;;;;;;;;22.50;18.00;;;;;15.90;40.72;100694.72;4980720;28;45276;-51
2022/04/20 08:57:57;;;;;;;;;17.75;13.25;;;;;16.00;41.19;100702.31;4980073;28;45347;-52
2022/04/20 09:00:26;;;;;;;;;20.25;19.00;;;;;16.07;40.65;100703.81;4979875;28;45461;-54
2022/04/20 09:02:52;;;;;;;;;20.25;18.50;;;;;16.14;40.84;100699.13;4981246;28;46904;-53
2022/04/20 09:05:19;;;;;;;;;21.00;21.00;;;;;16.20;40.92;100698.91;4963524;28;45469;-54
2022/04/20 09:07:45;;;;;;;;;22.00;20.25;;;;;16.27;40.76;100694.25;4980880;28;45291;-53
2022/04/20 09:10:10;;;;;;;;;15.00;14.75;;;;;16.32;40.64;100703.72;4979932;28;45321;-51
2022/04/20 09:12:42;;;;;;;;;20.00;19.00;;;;;16.37;40.42;100699.09;4972827;28;46200;-52
2022/04/20 09:15:09;;;;;;;;;22.00;17.75;;;;;16.46;40.38;100697.03;4976080;28;45424;-52
2022/04/20 09:17:40;;;;;;;;;19.00;16.75;;;;;16.52;40.47;100700.28;4987662;28;45321;-54
2022/04/20 09:20:07;;;;;;;;;15.50;14.50;;;;;16.60;40.33;100693.81;4982812;28;45342;-54
2022/04/20 09:22:32;;;;;;;;;14.75;12.50;;;;;16.68;40.23;100699.72;4979174;28;45489;-51
2022/04/20 09:25:07;;;;;;;;;19.00;18.00;;;;;16.76;40.20;100700.25;4979755;28;45624;-52
2022/04/20 09:27:35;;;;;;;;;19.25;19.00;;;;;16.84;40.38;100692.84;4972871;28;45451;-52
2022/04/20 09:30:01;;;;;;;;;20.00;17.25;;;;;16.85;40.39;100673.31;4977804;28;45504;-53
2022/04/20 09:32:34;;;;;;;;;16.00;15.00;;;;;16.99;40.13;100683.41;4978880;28;46225;-52
2022/04/20 09:35:03;;;;;;;;;15.50;15.25;;;;;17.11;40.04;100679.38;4980741;28;45440;-53
2022/04/20 09:37:28;;;;;;;;;22.25;22.25;;;;;17.24;40.28;100684.16;4980424;28;45290;-53
2022/04/20 09:39:53;;;;;;;;;22.50;20.75;;;;;17.32;40.13;100677.59;4980261;28;45684;-53
2022/04/20 09:42:20;;;;;;;;;16.50;16.25;;;;;17.42;39.99;100675.41;4980432;28;45419;-53
2022/04/20 09:44:55;;;;;;;;;18.50;16.00;;;;;17.50;40.12;100670.59;4980526;28;45421;-53
2022/04/20 09:50:07;;;;;;;;;15.25;15.00;;;;;17.75;40.00;100672.16;4980504;28;45161;-53
2022/04/20 09:52:38;;;;;;;;;15.25;13.75;;;;;17.87;40.00;100666.28;4979930;28;46756;-52
2022/04/20 09:55:05;;;;;;;;;18.25;14.50;;;;;17.98;39.78;100657.00;4980311;28;45261;-52
2022/04/20 09:57:32;;;;;;;;;13.50;12.00;;;;;18.13;39.75;100663.38;4979114;28;45263;-52
2022/04/20 09:59:59;;;;;;;;;15.50;11.25;;;;;18.08;39.48;100620.19;4980091;28;45304;-56
2022/04/20 10:02:27;;;;;;;;;14.75;14.50;;;;;18.42;39.85;100651.34;4977103;28;46204;-55
2022/04/20 10:04:52;;;;;;;;;14.50;14.50;;;;;18.56;39.73;100652.47;4976541;28;45554;-51
2022/04/20 10:07:18;;;;;;;;;15.50;13.25;;;;;18.69;39.70;100656.25;4980174;28;45413;-54
2022/04/20 10:09:43;;;;;;;;;15.50;14.00;;;;;18.83;39.42;100650.25;4960067;28;45382;-50
2022/04/20 10:12:11;;;;;;;;;14.00;12.25;;;;;18.96;39.17;100650.53;4975017;28;46862;-56
2022/04/20 10:17:26;;;;;;;;;11.50;11.50;;;;;19.25;39.22;100656.16;4977089;28;45334;-54
2022/04/20 10:19:53;;;;;;;;;15.00;13.50;;;;;19.39;39.13;100644.78;4986153;28;45452;-55
2022/04/20 10:22:20;;;;;;;;;12.00;12.00;;;;;19.53;38.95;100649.38;4984449;28;45238;-55
2022/04/20 10:24:49;;;;;;;;;11.00;10.25;;;;;19.69;38.66;100652.09;4990248;28;45493;-55
2022/04/20 10:27:53;;;;;;;;;9.50;9.50;;;;;19.89;38.95;100651.03;4992040;28;45388;-55
2022/04/20 10:30:23;;;;;;;;;8.00;5.75;;;;;20.07;38.37;100638.47;4960455;28;45588;-52
2022/04/20 10:32:52;;;;;;;;;8.75;7.50;;;;;20.27;38.28;100629.38;4996424;28;46341;-54
2022/04/20 10:35:18;;;;;;;;;9.25;9.00;;;;;20.50;38.19;100637.88;4998368;28;45495;-55
2022/04/20 10:38:06;;;;;;;;;9.00;9.00;;;;;20.73;38.27;100641.91;4983299;28;45459;-53
2022/04/20 10:40:33;;;;;;;;;10.25;10.25;;;;;20.92;37.78;100636.34;4987955;28;45377;-55
2022/04/20 10:43:19;;;;;;;;;11.75;10.00;;;;;21.14;37.84;100630.56;4990516;28;46989;-56
2022/04/20 10:46:05;;;;;;;;;9.25;9.00;;;;;21.37;38.09;100622.94;4980770;28;45425;-54
2022/04/20 10:48:49;;;;;;;;;10.50;10.50;;;;;21.62;38.01;100622.31;4989653;28;45271;-54
2022/04/20 10:51:17;;;;;;;;;7.00;6.75;;;;;21.84;37.39;100612.97;4993545;28;45263;-54
2022/04/20 10:53:47;;;;;;;;;13.75;9.50;;;;;22.13;37.68;100623.63;4986558;28;47193;-54
2022/04/20 10:56:12;;;;;;;;;10.50;9.00;;;;;22.44;37.43;100610.91;4991912;28;46748;-53
2022/04/20 10:58:50;;;;;;;;;9.00;9.00;;;;;22.79;37.52;100610.38;4988635;28;45416;-54
2022/04/20 11:01:16;;;;;;;;;9.50;9.50;;;;;23.18;37.13;100614.88;4990927;28;45450;-54
2022/04/20 11:04:07;;;;;;;;;5.50;5.50;;;;;23.60;36.99;100606.59;4987846;28;45274;-55
2022/04/20 11:06:58;;;;;;;;;12.00;11.00;;;;;24.02;36.87;100595.56;4994780;28;45321;-51
2022/04/20 11:09:42;;;;;;;;;11.00;8.75;;;;;24.44;36.80;100589.81;4999228;28;45388;-54
2022/04/20 11:21:08;;;;;;;;;6.75;6.75;;;;;26.28;35.25;100592.44;4997531;28;45541;-54
2022/04/20 11:23:52;;;;;;;;;6.50;6.25;;;;;26.75;34.98;100585.91;4994738;28;45472;-52
2022/04/20 11:26:32;;;;;;;;;7.50;5.00;;;;;27.16;34.70;100586.06;4997287;28;45384;-52
2022/04/20 11:29:00;;;;;;;;;5.25;4.75;;;;;27.55;34.44;100586.25;4997197;28;45267;-54
2022/04/20 11:31:26;;;;;;;;;3.25;3.25;;;;;27.93;34.58;100590.06;4998392;28;45868;-53
2022/04/20 11:33:53;;;;;;;;;4.00;4.00;;;;;28.28;34.10;100580.63;4995982;28;45464;-54
2022/04/20 11:36:19;;;;;;;;;4.75;4.75;;;;;28.61;33.80;100583.06;4999677;28;45781;-53
2022/04/20 11:38:48;;;;;;;;;5.50;4.50;;;;;28.96;33.38;100579.75;4986045;28;45184;-52
2022/04/20 11:41:16;;;;;;;;;5.75;5.75;;;;;29.31;33.45;100585.53;4999587;28;45393;-53
2022/04/20 11:43:41;;;;;;;;;5.00;4.50;;;;;29.66;32.74;100582.09;4996995;28;45545;-54
2022/04/20 11:46:08;;;;;;;;;4.00;3.00;;;;;30.00;32.67;100580.66;4999484;28;47200;-54
2022/04/20 11:48:38;;;;;;;;;4.25;4.00;;;;;30.35;32.19;100576.25;4995512;28;45360;-52
2022/04/20 11:51:08;;;;;;;;;3.00;3.00;;;;;30.66;32.44;100580.47;4999592;28;45516;-55
2022/04/20 11:53:36;;;;;;;;;5.50;4.50;;;;;30.97;31.86;100578.16;4996518;28;45317;-55
2022/04/20 11:56:03;;;;;;;;;3.75;2.75;;;;;31.25;31.54;100576.13;4997921;28;47570;-54
2022/04/20 11:58:30;;;;;;;;;4.25;3.00;;;;;31.59;31.57;100574.44;4988259;28;45524;-52
2022/04/20 12:01:07;;;;;;;;;3.75;3.75;;;;;31.88;31.70;100571.31;4981381;28;45771;-50
2022/04/20 12:03:37;;;;;;;;;3.00;3.00;;;;;32.12;30.52;100566.13;4981282;28;45570;-52
2022/04/20 12:06:04;;;;;;;;;3.00;3.00;;;;;32.36;31.12;100568.03;4981385;28;47069;-54
2022/04/20 12:08:34;;;;;;;;;2.00;2.00;;;;;32.60;30.89;100566.34;4980476;28;45530;-54
2022/04/20 12:11:08;;;;;;;;;3.75;3.75;;;;;32.82;29.87;100562.13;4981488;28;45382;-55
2022/04/20 12:13:33;;;;;;;;;2.25;2.25;;;;;33.03;30.05;100562.41;4982966;28;45417;-54
2022/04/20 12:16:03;;;;;;;;;2.00;2.00;;;;;33.24;29.98;100571.03;4985036;28;45602;-55
2022/04/20 12:18:30;;;;;;;;;2.00;1.00;;;;;33.41;29.90;100575.44;4984603;28;45369;-55
2022/04/20 12:20:57;;;;;;;;;0.00;0.00;;;;;33.59;29.70;100569.75;4981777;28;45433;-53
2022/04/20 12:23:22;;;;;;;;;2.00;1.25;;;;;33.74;29.20;100564.38;4980876;28;45562;-54
2022/04/20 12:25:54;;;;;;;;;2.00;2.00;;;;;33.92;29.03;100569.59;4981471;28;46122;-53
2022/04/20 12:31:08;;;;;;;;;2.25;2.25;;;;;34.23;28.28;100566.00;4980892;28;45473;-52
2022/04/20 12:33:33;;;;;;;;;5.00;5.00;;;;;34.32;27.96;100562.16;4979534;28;45323;-53
2022/04/20 12:36:06;;;;;;;;;2.50;2.00;;;;;34.43;27.88;100549.16;4980135;28;46979;-52